sensor_id;sensor_type;location;lat;lon;timestamp;P1;durP1;ratioP1;P2;durP2;ratioP2
66741;SDS011;53654;54.152;19.432;2024-02-23T00:01:49;19.00;;;17.20;;
66741;SDS011;53654;54.152;19.432;2024-02-23T00:04:18;18.20;;;16.50;;
66741;SDS011;53654;54.152;19.432;2024-02-23T00:06:49;17.70;;;16.10;;
66741;SDS011;53654;54.152;19.432;2024-02-23T00:09:17;18.70;;;16.90;;
66741;SDS011;53654;54.152;19.432;2024-02-23T00:11:45;18.20;;;13.30;;
66741;SDS011;53654;54.152;19.432;2024-02-23T00:14:15;17.60;;;16.00;;
66741;SDS011;53654;54.152;19.432;2024-02-23T00:16:46;18.20;;;16.50;;
66741;SDS011;53654;54.152;19.432;2024-02-23T00:19:14;18.20;;;16.50;;
66741;SDS011;53654;54.152;19.432;2024-02-23T00:21:46;18.80;;;16.90;;
66741;SDS011;53654;54.152;19.432;2024-02-23T00:24:18;17.40;;;15.80;;
66741;SDS011;53654;54.152;19.432;2024-02-23T00:26:48;18.20;;;16.40;;
66741;SDS011;53654;54.152;19.432;2024-02-23T00:29:17;18.10;;;16.40;;
66741;SDS011;53654;54.152;19.432;2024-02-23T00:31:46;17.80;;;16.10;;
66741;SDS011;53654;54.152;19.432;2024-02-23T00:34:16;17.50;;;15.90;;
66741;SDS011;53654;54.152;19.432;2024-02-23T00:36:44;18.00;;;16.20;;
66741;SDS011;53654;54.152;19.432;2024-02-23T00:39:13;17.80;;;16.20;;
66741;SDS011;53654;54.152;19.432;2024-02-23T00:41:41;17.90;;;16.30;;
66741;SDS011;53654;54.152;19.432;2024-02-23T00:44:09;18.00;;;16.30;;
66741;SDS011;53654;54.152;19.432;2024-02-23T00:46:37;18.40;;;16.70;;
66741;SDS011;53654;54.152;19.432;2024-02-23T00:49:06;17.60;;;16.00;;
66741;SDS011;53654;54.152;19.432;2024-02-23T00:51:34;17.90;;;16.10;;
66741;SDS011;53654;54.152;19.432;2024-02-23T00:54:03;17.80;;;16.10;;
66741;SDS011;53654;54.152;19.432;2024-02-23T00:56:31;18.10;;;16.40;;
66741;SDS011;53654;54.152;19.432;2024-02-23T00:59:12;17.90;;;16.20;;
66741;SDS011;53654;54.152;19.432;2024-02-23T01:01:41;17.60;;;16.00;;
66741;SDS011;53654;54.152;19.432;2024-02-23T01:04:09;17.50;;;15.90;;
66741;SDS011;53654;54.152;19.432;2024-02-23T01:06:37;17.50;;;15.90;;
66741;SDS011;53654;54.152;19.432;2024-02-23T01:09:05;17.10;;;15.60;;
66741;SDS011;53654;54.152;19.432;2024-02-23T01:11:33;17.50;;;15.90;;
66741;SDS011;53654;54.152;19.432;2024-02-23T01:14:02;16.90;;;15.40;;
66741;SDS011;53654;54.152;19.432;2024-02-23T01:16:30;17.40;;;15.70;;
66741;SDS011;53654;54.152;19.432;2024-02-23T01:19:00;17.60;;;15.90;;
66741;SDS011;53654;54.152;19.432;2024-02-23T01:21:28;17.30;;;15.70;;
66741;SDS011;53654;54.152;19.432;2024-02-23T01:23:56;17.10;;;15.50;;
66741;SDS011;53654;54.152;19.432;2024-02-23T01:26:25;17.30;;;15.70;;
66741;SDS011;53654;54.152;19.432;2024-02-23T01:28:53;17.20;;;15.50;;
66741;SDS011;53654;54.152;19.432;2024-02-23T01:31:21;17.10;;;15.50;;
66741;SDS011;53654;54.152;19.432;2024-02-23T01:33:49;16.70;;;15.20;;
66741;SDS011;53654;54.152;19.432;2024-02-23T01:36:19;16.50;;;15.00;;
66741;SDS011;53654;54.152;19.432;2024-02-23T01:38:48;16.80;;;15.30;;
66741;SDS011;53654;54.152;19.432;2024-02-23T01:41:16;16.80;;;15.30;;
66741;SDS011;53654;54.152;19.432;2024-02-23T01:43:44;17.50;;;15.90;;
66741;SDS011;53654;54.152;19.432;2024-02-23T01:46:13;17.80;;;16.20;;
66741;SDS011;53654;54.152;19.432;2024-02-23T01:48:45;16.90;;;15.40;;
66741;SDS011;53654;54.152;19.432;2024-02-23T01:51:14;17.50;;;15.90;;
66741;SDS011;53654;54.152;19.432;2024-02-23T01:53:42;17.70;;;16.00;;
66741;SDS011;53654;54.152;19.432;2024-02-23T01:56:11;17.80;;;16.10;;
66741;SDS011;53654;54.152;19.432;2024-02-23T01:58:47;18.10;;;16.30;;
66741;SDS011;53654;54.152;19.432;2024-02-23T02:01:15;17.90;;;16.20;;
66741;SDS011;53654;54.152;19.432;2024-02-23T02:03:44;17.40;;;15.90;;
66741;SDS011;53654;54.152;19.432;2024-02-23T02:06:12;17.80;;;16.10;;
66741;SDS011;53654;54.152;19.432;2024-02-23T02:08:41;16.50;;;15.10;;
66741;SDS011;53654;54.152;19.432;2024-02-23T02:11:09;17.00;;;15.40;;
66741;SDS011;53654;54.152;19.432;2024-02-23T02:13:38;16.10;;;14.60;;
66741;SDS011;53654;54.152;19.432;2024-02-23T02:16:06;16.50;;;15.00;;
66741;SDS011;53654;54.152;19.432;2024-02-23T02:18:34;15.80;;;14.30;;
66741;SDS011;53654;54.152;19.432;2024-02-23T02:21:02;16.30;;;14.80;;
66741;SDS011;53654;54.152;19.432;2024-02-23T02:23:31;16.30;;;14.80;;
66741;SDS011;53654;54.152;19.432;2024-02-23T02:26:00;16.50;;;15.10;;
66741;SDS011;53654;54.152;19.432;2024-02-23T02:28:28;16.60;;;15.10;;
66741;SDS011;53654;54.152;19.432;2024-02-23T02:30:56;16.70;;;15.10;;
66741;SDS011;53654;54.152;19.432;2024-02-23T02:33:25;16.50;;;15.10;;
66741;SDS011;53654;54.152;19.432;2024-02-23T02:35:53;17.50;;;16.00;;
66741;SDS011;53654;54.152;19.432;2024-02-23T02:38:21;17.00;;;15.40;;
66741;SDS011;53654;54.152;19.432;2024-02-23T02:40:49;17.50;;;15.70;;
66741;SDS011;53654;54.152;19.432;2024-02-23T02:43:18;17.30;;;15.70;;
66741;SDS011;53654;54.152;19.432;2024-02-23T02:45:46;16.80;;;15.30;;
66741;SDS011;53654;54.152;19.432;2024-02-23T02:48:15;17.20;;;15.60;;
66741;SDS011;53654;54.152;19.432;2024-02-23T02:50:43;17.00;;;15.50;;
66741;SDS011;53654;54.152;19.432;2024-02-23T02:53:12;17.20;;;15.70;;
66741;SDS011;53654;54.152;19.432;2024-02-23T02:55:41;17.20;;;15.40;;
66741;SDS011;53654;54.152;19.432;2024-02-23T02:58:13;16.60;;;15.20;;
66741;SDS011;53654;54.152;19.432;2024-02-23T03:00:42;17.30;;;15.70;;
66741;SDS011;53654;54.152;19.432;2024-02-23T03:03:10;17.00;;;15.40;;
66741;SDS011;53654;54.152;19.432;2024-02-23T03:05:40;17.30;;;15.70;;
66741;SDS011;53654;54.152;19.432;2024-02-23T03:08:09;17.10;;;15.50;;
66741;SDS011;53654;54.152;19.432;2024-02-23T03:10:37;17.40;;;15.90;;
66741;SDS011;53654;54.152;19.432;2024-02-23T03:13:05;17.60;;;16.00;;
66741;SDS011;53654;54.152;19.432;2024-02-23T03:15:33;17.20;;;15.50;;
66741;SDS011;53654;54.152;19.432;2024-02-23T03:18:02;17.40;;;15.90;;
66741;SDS011;53654;54.152;19.432;2024-02-23T03:20:30;17.80;;;16.20;;
66741;SDS011;53654;54.152;19.432;2024-02-23T03:22:58;17.00;;;15.60;;
66741;SDS011;53654;54.152;19.432;2024-02-23T03:25:27;17.30;;;15.70;;
66741;SDS011;53654;54.152;19.432;2024-02-23T03:27:55;17.00;;;15.50;;
66741;SDS011;53654;54.152;19.432;2024-02-23T03:30:24;17.10;;;15.60;;
66741;SDS011;53654;54.152;19.432;2024-02-23T03:32:52;16.80;;;15.30;;
66741;SDS011;53654;54.152;19.432;2024-02-23T03:35:20;16.30;;;14.90;;
66741;SDS011;53654;54.152;19.432;2024-02-23T03:37:48;16.90;;;15.30;;
66741;SDS011;53654;54.152;19.432;2024-02-23T03:40:16;16.50;;;15.10;;
66741;SDS011;53654;54.152;19.432;2024-02-23T03:42:47;16.30;;;14.90;;
66741;SDS011;53654;54.152;19.432;2024-02-23T03:45:15;15.80;;;14.40;;
66741;SDS011;53654;54.152;19.432;2024-02-23T03:47:43;16.40;;;15.00;;
66741;SDS011;53654;54.152;19.432;2024-02-23T03:50:11;15.70;;;14.30;;
66741;SDS011;53654;54.152;19.432;2024-02-23T03:52:39;16.30;;;14.90;;
66741;SDS011;53654;54.152;19.432;2024-02-23T03:55:08;16.40;;;15.00;;
66741;SDS011;53654;54.152;19.432;2024-02-23T03:57:36;16.30;;;14.90;;
66741;SDS011;53654;54.152;19.432;2024-02-23T04:00:05;16.70;;;15.30;;
66741;SDS011;53654;54.152;19.432;2024-02-23T04:02:38;17.00;;;15.40;;
66741;SDS011;53654;54.152;19.432;2024-02-23T04:05:07;17.00;;;15.50;;
66741;SDS011;53654;54.152;19.432;2024-02-23T04:07:35;17.00;;;15.40;;
66741;SDS011;53654;54.152;19.432;2024-02-23T04:10:03;16.80;;;15.40;;
66741;SDS011;53654;54.152;19.432;2024-02-23T04:12:32;16.30;;;14.90;;
66741;SDS011;53654;54.152;19.432;2024-02-23T04:15:00;16.10;;;14.70;;
66741;SDS011;53654;54.152;19.432;2024-02-23T04:17:29;16.00;;;14.70;;
66741;SDS011;53654;54.152;19.432;2024-02-23T04:19:59;15.40;;;14.10;;
66741;SDS011;53654;54.152;19.432;2024-02-23T04:22:32;15.50;;;14.20;;
66741;SDS011;53654;54.152;19.432;2024-02-23T04:25:01;15.00;;;13.70;;
66741;SDS011;53654;54.152;19.432;2024-02-23T04:27:29;15.30;;;14.00;;
66741;SDS011;53654;54.152;19.432;2024-02-23T04:29:57;15.70;;;14.30;;
66741;SDS011;53654;54.152;19.432;2024-02-23T04:32:26;15.10;;;13.80;;
66741;SDS011;53654;54.152;19.432;2024-02-23T04:34:54;14.40;;;13.10;;
66741;SDS011;53654;54.152;19.432;2024-02-23T04:37:23;13.80;;;12.50;;
66741;SDS011;53654;54.152;19.432;2024-02-23T04:39:51;14.40;;;13.10;;
66741;SDS011;53654;54.152;19.432;2024-02-23T04:42:19;14.60;;;13.40;;
66741;SDS011;53654;54.152;19.432;2024-02-23T04:44:47;14.40;;;13.20;;
66741;SDS011;53654;54.152;19.432;2024-02-23T04:47:17;14.30;;;13.00;;
66741;SDS011;53654;54.152;19.432;2024-02-23T04:49:45;13.30;;;12.10;;
66741;SDS011;53654;54.152;19.432;2024-02-23T04:52:13;13.70;;;12.50;;
66741;SDS011;53654;54.152;19.432;2024-02-23T04:54:41;13.90;;;12.50;;
66741;SDS011;53654;54.152;19.432;2024-02-23T04:57:10;13.60;;;12.30;;
66741;SDS011;53654;54.152;19.432;2024-02-23T04:59:38;14.40;;;13.00;;
66741;SDS011;53654;54.152;19.432;2024-02-23T05:02:06;14.40;;;13.10;;
66741;SDS011;53654;54.152;19.432;2024-02-23T05:04:35;15.20;;;13.80;;
66741;SDS011;53654;54.152;19.432;2024-02-23T05:07:03;16.70;;;15.20;;
66741;SDS011;53654;54.152;19.432;2024-02-23T05:09:31;14.00;;;12.70;;
66741;SDS011;53654;54.152;19.432;2024-02-23T05:12:00;13.90;;;12.60;;
66741;SDS011;53654;54.152;19.432;2024-02-23T05:14:29;13.10;;;11.80;;
66741;SDS011;53654;54.152;19.432;2024-02-23T05:16:57;12.80;;;11.60;;
66741;SDS011;53654;54.152;19.432;2024-02-23T05:19:26;12.60;;;11.50;;
66741;SDS011;53654;54.152;19.432;2024-02-23T05:21:54;14.10;;;12.80;;
66741;SDS011;53654;54.152;19.432;2024-02-23T05:24:22;13.70;;;12.40;;
66741;SDS011;53654;54.152;19.432;2024-02-23T05:26:50;12.40;;;11.20;;
66741;SDS011;53654;54.152;19.432;2024-02-23T05:29:19;11.70;;;10.70;;
66741;SDS011;53654;54.152;19.432;2024-02-23T05:31:51;11.80;;;10.80;;
66741;SDS011;53654;54.152;19.432;2024-02-23T05:34:20;11.30;;;10.40;;
66741;SDS011;53654;54.152;19.432;2024-02-23T05:36:49;11.10;;;10.20;;
66741;SDS011;53654;54.152;19.432;2024-02-23T05:39:19;11.10;;;10.10;;
66741;SDS011;53654;54.152;19.432;2024-02-23T05:41:47;10.80;;;9.90;;
66741;SDS011;53654;54.152;19.432;2024-02-23T05:44:15;10.90;;;10.00;;
66741;SDS011;53654;54.152;19.432;2024-02-23T05:46:43;11.30;;;10.40;;
66741;SDS011;53654;54.152;19.432;2024-02-23T05:49:12;11.60;;;10.60;;
66741;SDS011;53654;54.152;19.432;2024-02-23T05:51:40;10.80;;;9.90;;
66741;SDS011;53654;54.152;19.432;2024-02-23T05:54:08;11.30;;;10.30;;
66741;SDS011;53654;54.152;19.432;2024-02-23T05:56:38;11.50;;;10.60;;
66741;SDS011;53654;54.152;19.432;2024-02-23T05:59:06;10.90;;;10.00;;
66741;SDS011;53654;54.152;19.432;2024-02-23T06:01:34;11.40;;;10.50;;
66741;SDS011;53654;54.152;19.432;2024-02-23T06:04:03;11.50;;;10.60;;
66741;SDS011;53654;54.152;19.432;2024-02-23T06:06:31;11.10;;;10.20;;
66741;SDS011;53654;54.152;19.432;2024-02-23T06:08:59;11.60;;;10.60;;
66741;SDS011;53654;54.152;19.432;2024-02-23T06:11:28;11.40;;;10.50;;
66741;SDS011;53654;54.152;19.432;2024-02-23T06:13:56;11.70;;;10.70;;
66741;SDS011;53654;54.152;19.432;2024-02-23T06:16:25;12.20;;;11.20;;
66741;SDS011;53654;54.152;19.432;2024-02-23T06:18:53;12.10;;;11.10;;
66741;SDS011;53654;54.152;19.432;2024-02-23T06:21:21;11.60;;;10.60;;
66741;SDS011;53654;54.152;19.432;2024-02-23T06:23:49;11.90;;;10.90;;
66741;SDS011;53654;54.152;19.432;2024-02-23T06:26:17;11.90;;;11.00;;
66741;SDS011;53654;54.152;19.432;2024-02-23T06:28:46;11.60;;;10.60;;
66741;SDS011;53654;54.152;19.432;2024-02-23T06:31:14;11.00;;;10.00;;
66741;SDS011;53654;54.152;19.432;2024-02-23T06:33:43;11.70;;;10.80;;
66741;SDS011;53654;54.152;19.432;2024-02-23T06:36:11;11.50;;;10.50;;
66741;SDS011;53654;54.152;19.432;2024-02-23T06:38:39;11.50;;;10.50;;
66741;SDS011;53654;54.152;19.432;2024-02-23T06:41:08;10.50;;;9.70;;
66741;SDS011;53654;54.152;19.432;2024-02-23T06:43:38;10.70;;;9.80;;
66741;SDS011;53654;54.152;19.432;2024-02-23T06:46:07;10.10;;;9.20;;
66741;SDS011;53654;54.152;19.432;2024-02-23T06:48:36;10.50;;;9.70;;
66741;SDS011;53654;54.152;19.432;2024-02-23T06:51:05;9.60;;;8.80;;
66741;SDS011;53654;54.152;19.432;2024-02-23T06:53:37;9.60;;;8.80;;
66741;SDS011;53654;54.152;19.432;2024-02-23T06:56:06;9.70;;;8.90;;
66741;SDS011;53654;54.152;19.432;2024-02-23T06:58:35;8.80;;;8.10;;
66741;SDS011;53654;54.152;19.432;2024-02-23T07:01:04;8.80;;;8.10;;
66741;SDS011;53654;54.152;19.432;2024-02-23T07:03:34;8.90;;;8.20;;
66741;SDS011;53654;54.152;19.432;2024-02-23T07:06:03;9.10;;;8.30;;
66741;SDS011;53654;54.152;19.432;2024-02-23T07:08:32;9.40;;;8.60;;
66741;SDS011;53654;54.152;19.432;2024-02-23T07:11:01;8.90;;;8.20;;
66741;SDS011;53654;54.152;19.432;2024-02-23T07:13:29;8.90;;;8.20;;
66741;SDS011;53654;54.152;19.432;2024-02-23T07:15:58;8.50;;;7.80;;
66741;SDS011;53654;54.152;19.432;2024-02-23T07:18:27;8.20;;;7.60;;
66741;SDS011;53654;54.152;19.432;2024-02-23T07:20:56;8.10;;;7.40;;
66741;SDS011;53654;54.152;19.432;2024-02-23T07:23:24;8.80;;;8.00;;
66741;SDS011;53654;54.152;19.432;2024-02-23T07:25:52;8.60;;;7.80;;
66741;SDS011;53654;54.152;19.432;2024-02-23T07:28:21;8.10;;;7.50;;
66741;SDS011;53654;54.152;19.432;2024-02-23T07:30:51;7.50;;;6.90;;
66741;SDS011;53654;54.152;19.432;2024-02-23T07:33:20;7.50;;;6.90;;
66741;SDS011;53654;54.152;19.432;2024-02-23T07:35:49;7.30;;;6.60;;
66741;SDS011;53654;54.152;19.432;2024-02-23T07:38:17;7.60;;;6.90;;
66741;SDS011;53654;54.152;19.432;2024-02-23T07:40:46;7.30;;;6.70;;
66741;SDS011;53654;54.152;19.432;2024-02-23T07:43:16;6.60;;;6.00;;
66741;SDS011;53654;54.152;19.432;2024-02-23T07:45:44;7.20;;;6.60;;
66741;SDS011;53654;54.152;19.432;2024-02-23T07:48:12;6.70;;;6.10;;
66741;SDS011;53654;54.152;19.432;2024-02-23T07:50:41;6.20;;;5.70;;
66741;SDS011;53654;54.152;19.432;2024-02-23T07:53:09;6.80;;;6.20;;
66741;SDS011;53654;54.152;19.432;2024-02-23T07:55:37;6.60;;;6.00;;
66741;SDS011;53654;54.152;19.432;2024-02-23T07:58:06;7.40;;;6.80;;
66741;SDS011;53654;54.152;19.432;2024-02-23T08:00:34;7.00;;;6.30;;
66741;SDS011;53654;54.152;19.432;2024-02-23T08:03:06;6.30;;;5.80;;
66741;SDS011;53654;54.152;19.432;2024-02-23T08:05:35;6.00;;;5.50;;
66741;SDS011;53654;54.152;19.432;2024-02-23T08:08:04;6.10;;;5.60;;
66741;SDS011;53654;54.152;19.432;2024-02-23T08:10:34;6.20;;;5.70;;
66741;SDS011;53654;54.152;19.432;2024-02-23T08:13:03;6.00;;;5.50;;
66741;SDS011;53654;54.152;19.432;2024-02-23T08:15:31;5.50;;;5.00;;
66741;SDS011;53654;54.152;19.432;2024-02-23T08:18:00;5.70;;;5.20;;
66741;SDS011;53654;54.152;19.432;2024-02-23T08:20:28;5.70;;;5.30;;
66741;SDS011;53654;54.152;19.432;2024-02-23T08:22:57;5.70;;;5.20;;
66741;SDS011;53654;54.152;19.432;2024-02-23T08:25:25;6.00;;;5.40;;
66741;SDS011;53654;54.152;19.432;2024-02-23T08:27:56;5.80;;;5.40;;
66741;SDS011;53654;54.152;19.432;2024-02-23T08:30:24;6.40;;;5.70;;
66741;SDS011;53654;54.152;19.432;2024-02-23T08:32:52;5.20;;;4.70;;
66741;SDS011;53654;54.152;19.432;2024-02-23T08:35:21;5.30;;;4.80;;
66741;SDS011;53654;54.152;19.432;2024-02-23T08:37:50;5.10;;;4.60;;
66741;SDS011;53654;54.152;19.432;2024-02-23T08:40:18;5.20;;;4.80;;
66741;SDS011;53654;54.152;19.432;2024-02-23T08:42:46;5.40;;;4.90;;
66741;SDS011;53654;54.152;19.432;2024-02-23T08:45:15;5.10;;;4.60;;
66741;SDS011;53654;54.152;19.432;2024-02-23T08:47:44;5.20;;;4.70;;
66741;SDS011;53654;54.152;19.432;2024-02-23T08:50:13;5.00;;;4.50;;
66741;SDS011;53654;54.152;19.432;2024-02-23T08:52:42;4.80;;;4.40;;
66741;SDS011;53654;54.152;19.432;2024-02-23T08:55:10;4.10;;;3.80;;
66741;SDS011;53654;54.152;19.432;2024-02-23T08:57:39;3.70;;;3.40;;
66741;SDS011;53654;54.152;19.432;2024-02-23T09:00:08;4.20;;;3.70;;
66741;SDS011;53654;54.152;19.432;2024-02-23T09:02:37;3.60;;;3.20;;
66741;SDS011;53654;54.152;19.432;2024-02-23T09:05:06;3.40;;;3.20;;
66741;SDS011;53654;54.152;19.432;2024-02-23T09:07:35;3.40;;;3.10;;
66741;SDS011;53654;54.152;19.432;2024-02-23T09:10:04;3.40;;;3.10;;
66741;SDS011;53654;54.152;19.432;2024-02-23T09:12:32;3.50;;;3.10;;
66741;SDS011;53654;54.152;19.432;2024-02-23T09:15:01;3.10;;;2.90;;
66741;SDS011;53654;54.152;19.432;2024-02-23T09:17:29;3.50;;;2.90;;
66741;SDS011;53654;54.152;19.432;2024-02-23T09:19:57;3.90;;;3.20;;
66741;SDS011;53654;54.152;19.432;2024-02-23T09:22:25;3.30;;;3.00;;
66741;SDS011;53654;54.152;19.432;2024-02-23T09:24:54;4.60;;;3.20;;
66741;SDS011;53654;54.152;19.432;2024-02-23T09:27:24;3.20;;;2.90;;
66741;SDS011;53654;54.152;19.432;2024-02-23T09:29:52;3.30;;;3.00;;
66741;SDS011;53654;54.152;19.432;2024-02-23T09:32:21;3.80;;;3.00;;
66741;SDS011;53654;54.152;19.432;2024-02-23T09:34:49;3.20;;;2.90;;
66741;SDS011;53654;54.152;19.432;2024-02-23T09:37:17;3.60;;;3.30;;
66741;SDS011;53654;54.152;19.432;2024-02-23T09:39:46;2.80;;;2.60;;
66741;SDS011;53654;54.152;19.432;2024-02-23T09:42:14;2.90;;;2.60;;
66741;SDS011;53654;54.152;19.432;2024-02-23T09:44:42;3.20;;;2.70;;
66741;SDS011;53654;54.152;19.432;2024-02-23T09:47:13;3.00;;;2.70;;
66741;SDS011;53654;54.152;19.432;2024-02-23T09:49:42;3.10;;;2.80;;
66741;SDS011;53654;54.152;19.432;2024-02-23T09:52:12;2.80;;;2.50;;
66741;SDS011;53654;54.152;19.432;2024-02-23T09:54:41;2.70;;;2.50;;
66741;SDS011;53654;54.152;19.432;2024-02-23T09:57:11;3.70;;;2.70;;
66741;SDS011;53654;54.152;19.432;2024-02-23T09:59:39;2.60;;;2.30;;
66741;SDS011;53654;54.152;19.432;2024-02-23T10:02:08;4.30;;;2.40;;
66741;SDS011;53654;54.152;19.432;2024-02-23T10:04:42;3.80;;;2.60;;
66741;SDS011;53654;54.152;19.432;2024-02-23T10:07:14;2.70;;;2.40;;
66741;SDS011;53654;54.152;19.432;2024-02-23T10:09:46;2.80;;;2.40;;
66741;SDS011;53654;54.152;19.432;2024-02-23T10:12:15;2.30;;;2.00;;
66741;SDS011;53654;54.152;19.432;2024-02-23T10:14:44;3.50;;;2.10;;
66741;SDS011;53654;54.152;19.432;2024-02-23T10:17:12;2.90;;;2.30;;
66741;SDS011;53654;54.152;19.432;2024-02-23T10:19:40;3.00;;;2.50;;
66741;SDS011;53654;54.152;19.432;2024-02-23T10:22:09;2.40;;;2.10;;
66741;SDS011;53654;54.152;19.432;2024-02-23T10:24:38;2.70;;;2.20;;
66741;SDS011;53654;54.152;19.432;2024-02-23T10:27:06;5.60;;;2.60;;
66741;SDS011;53654;54.152;19.432;2024-02-23T10:29:35;3.00;;;2.30;;
66741;SDS011;53654;54.152;19.432;2024-02-23T10:32:03;2.60;;;2.00;;
66741;SDS011;53654;54.152;19.432;2024-02-23T10:34:34;2.80;;;1.80;;
66741;SDS011;53654;54.152;19.432;2024-02-23T10:37:06;2.70;;;1.90;;
66741;SDS011;53654;54.152;19.432;2024-02-23T10:39:38;2.40;;;1.90;;
66741;SDS011;53654;54.152;19.432;2024-02-23T10:42:08;3.20;;;1.90;;
66741;SDS011;53654;54.152;19.432;2024-02-23T10:44:37;3.10;;;1.90;;
66741;SDS011;53654;54.152;19.432;2024-02-23T10:47:07;3.60;;;2.10;;
66741;SDS011;53654;54.152;19.432;2024-02-23T10:49:36;2.50;;;2.10;;
66741;SDS011;53654;54.152;19.432;2024-02-23T10:52:05;2.20;;;2.00;;
66741;SDS011;53654;54.152;19.432;2024-02-23T10:54:39;3.10;;;2.50;;
66741;SDS011;53654;54.152;19.432;2024-02-23T10:57:08;5.10;;;3.10;;
66741;SDS011;53654;54.152;19.432;2024-02-23T10:59:37;4.00;;;3.50;;
66741;SDS011;53654;54.152;19.432;2024-02-23T11:02:07;5.10;;;3.60;;
66741;SDS011;53654;54.152;19.432;2024-02-23T11:04:37;4.90;;;3.60;;
66741;SDS011;53654;54.152;19.432;2024-02-23T11:07:12;3.50;;;2.60;;
66741;SDS011;53654;54.152;19.432;2024-02-23T11:09:42;4.70;;;2.70;;
66741;SDS011;53654;54.152;19.432;2024-02-23T11:12:10;4.00;;;2.60;;
66741;SDS011;53654;54.152;19.432;2024-02-23T11:14:39;3.00;;;2.70;;
66741;SDS011;53654;54.152;19.432;2024-02-23T11:17:07;3.50;;;2.40;;
66741;SDS011;53654;54.152;19.432;2024-02-23T11:19:48;4.00;;;2.40;;
66741;SDS011;53654;54.152;19.432;2024-02-23T11:22:25;2.70;;;2.00;;
66741;SDS011;53654;54.152;19.432;2024-02-23T11:25:06;2.50;;;2.10;;
66741;SDS011;53654;54.152;19.432;2024-02-23T11:27:38;3.70;;;2.10;;
66741;SDS011;53654;54.152;19.432;2024-02-23T11:30:11;4.70;;;3.30;;
66741;SDS011;53654;54.152;19.432;2024-02-23T11:32:41;6.30;;;4.30;;
66741;SDS011;53654;54.152;19.432;2024-02-23T11:35:11;4.50;;;3.20;;
66741;SDS011;53654;54.152;19.432;2024-02-23T11:37:44;4.60;;;2.70;;
66741;SDS011;53654;54.152;19.432;2024-02-23T11:40:14;4.60;;;2.40;;
66741;SDS011;53654;54.152;19.432;2024-02-23T11:42:43;2.80;;;2.40;;
66741;SDS011;53654;54.152;19.432;2024-02-23T11:45:11;3.00;;;2.40;;
66741;SDS011;53654;54.152;19.432;2024-02-23T11:47:39;3.60;;;2.50;;
66741;SDS011;53654;54.152;19.432;2024-02-23T11:50:09;4.00;;;2.50;;
66741;SDS011;53654;54.152;19.432;2024-02-23T11:52:38;3.60;;;2.30;;
66741;SDS011;53654;54.152;19.432;2024-02-23T11:55:07;3.40;;;2.90;;
66741;SDS011;53654;54.152;19.432;2024-02-23T11:57:38;4.30;;;3.20;;
66741;SDS011;53654;54.152;19.432;2024-02-23T12:00:15;3.80;;;2.90;;
66741;SDS011;53654;54.152;19.432;2024-02-23T12:02:44;5.70;;;3.00;;
66741;SDS011;53654;54.152;19.432;2024-02-23T12:05:16;4.60;;;2.90;;
66741;SDS011;53654;54.152;19.432;2024-02-23T12:07:45;4.10;;;2.90;;
66741;SDS011;53654;54.152;19.432;2024-02-23T12:10:14;3.20;;;2.80;;
66741;SDS011;53654;54.152;19.432;2024-02-23T12:12:43;3.50;;;2.70;;
66741;SDS011;53654;54.152;19.432;2024-02-23T12:15:11;3.00;;;2.30;;
66741;SDS011;53654;54.152;19.432;2024-02-23T12:17:46;4.10;;;2.70;;
66741;SDS011;53654;54.152;19.432;2024-02-23T12:20:15;3.10;;;2.50;;
66741;SDS011;53654;54.152;19.432;2024-02-23T12:22:44;3.80;;;2.60;;
66741;SDS011;53654;54.152;19.432;2024-02-23T12:25:13;4.00;;;2.80;;
66741;SDS011;53654;54.152;19.432;2024-02-23T12:27:41;3.70;;;3.10;;
66741;SDS011;53654;54.152;19.432;2024-02-23T12:30:14;4.50;;;3.30;;
66741;SDS011;53654;54.152;19.432;2024-02-23T12:32:43;4.10;;;2.80;;
66741;SDS011;53654;54.152;19.432;2024-02-23T12:35:11;4.50;;;2.80;;
66741;SDS011;53654;54.152;19.432;2024-02-23T12:37:40;2.30;;;2.00;;
66741;SDS011;53654;54.152;19.432;2024-02-23T12:40:12;6.00;;;2.20;;
66741;SDS011;53654;54.152;19.432;2024-02-23T12:42:41;2.20;;;2.00;;
66741;SDS011;53654;54.152;19.432;2024-02-23T12:45:09;2.70;;;1.80;;
66741;SDS011;53654;54.152;19.432;2024-02-23T12:47:37;2.50;;;2.20;;
66741;SDS011;53654;54.152;19.432;2024-02-23T12:50:07;2.30;;;2.10;;
66741;SDS011;53654;54.152;19.432;2024-02-23T12:52:36;2.70;;;1.70;;
66741;SDS011;53654;54.152;19.432;2024-02-23T12:55:04;2.30;;;1.60;;
66741;SDS011;53654;54.152;19.432;2024-02-23T12:57:33;1.50;;;1.40;;
66741;SDS011;53654;54.152;19.432;2024-02-23T13:00:01;1.70;;;1.60;;
66741;SDS011;53654;54.152;19.432;2024-02-23T13:02:30;2.20;;;1.50;;
66741;SDS011;53654;54.152;19.432;2024-02-23T13:04:58;4.00;;;3.10;;
66741;SDS011;53654;54.152;19.432;2024-02-23T13:07:27;4.10;;;3.70;;
66741;SDS011;53654;54.152;19.432;2024-02-23T13:09:58;3.20;;;2.90;;
66741;SDS011;53654;54.152;19.432;2024-02-23T13:12:26;3.70;;;2.80;;
66741;SDS011;53654;54.152;19.432;2024-02-23T13:14:54;4.10;;;2.70;;
66741;SDS011;53654;54.152;19.432;2024-02-23T13:17:23;3.60;;;2.50;;
66741;SDS011;53654;54.152;19.432;2024-02-23T13:19:52;3.30;;;2.40;;
66741;SDS011;53654;54.152;19.432;2024-02-23T13:22:38;3.90;;;2.80;;
66741;SDS011;53654;54.152;19.432;2024-02-23T13:25:07;2.90;;;2.50;;
66741;SDS011;53654;54.152;19.432;2024-02-23T13:27:35;2.20;;;1.90;;
66741;SDS011;53654;54.152;19.432;2024-02-23T13:30:03;2.20;;;1.90;;
66741;SDS011;53654;54.152;19.432;2024-02-23T13:32:32;2.80;;;2.00;;
66741;SDS011;53654;54.152;19.432;2024-02-23T13:35:00;2.20;;;2.00;;
66741;SDS011;53654;54.152;19.432;2024-02-23T13:37:32;2.30;;;1.80;;
66741;SDS011;53654;54.152;19.432;2024-02-23T13:40:01;3.10;;;1.60;;
66741;SDS011;53654;54.152;19.432;2024-02-23T13:42:30;2.10;;;1.50;;
66741;SDS011;53654;54.152;19.432;2024-02-23T13:44:59;1.90;;;1.70;;
66741;SDS011;53654;54.152;19.432;2024-02-23T13:47:28;2.70;;;2.00;;
66741;SDS011;53654;54.152;19.432;2024-02-23T13:49:56;3.60;;;1.80;;
66741;SDS011;53654;54.152;19.432;2024-02-23T13:52:24;2.00;;;1.60;;
66741;SDS011;53654;54.152;19.432;2024-02-23T13:54:53;3.80;;;1.40;;
66741;SDS011;53654;54.152;19.432;2024-02-23T13:57:21;3.50;;;1.50;;
66741;SDS011;53654;54.152;19.432;2024-02-23T13:59:49;1.50;;;1.00;;
66741;SDS011;53654;54.152;19.432;2024-02-23T14:02:24;2.00;;;1.20;;
66741;SDS011;53654;54.152;19.432;2024-02-23T14:04:59;1.90;;;1.30;;
66741;SDS011;53654;54.152;19.432;2024-02-23T14:07:30;3.30;;;1.50;;
66741;SDS011;53654;54.152;19.432;2024-02-23T14:09:58;1.90;;;1.60;;
66741;SDS011;53654;54.152;19.432;2024-02-23T14:12:27;1.60;;;1.50;;
66741;SDS011;53654;54.152;19.432;2024-02-23T14:14:55;2.90;;;2.00;;
66741;SDS011;53654;54.152;19.432;2024-02-23T14:17:24;4.50;;;2.10;;
66741;SDS011;53654;54.152;19.432;2024-02-23T14:19:52;2.50;;;1.90;;
66741;SDS011;53654;54.152;19.432;2024-02-23T14:22:21;1.80;;;1.50;;
66741;SDS011;53654;54.152;19.432;2024-02-23T14:24:49;2.60;;;1.30;;
66741;SDS011;53654;54.152;19.432;2024-02-23T14:27:17;2.10;;;1.30;;
66741;SDS011;53654;54.152;19.432;2024-02-23T14:29:46;2.40;;;1.30;;
66741;SDS011;53654;54.152;19.432;2024-02-23T14:32:15;2.70;;;1.20;;
66741;SDS011;53654;54.152;19.432;2024-02-23T14:34:45;3.80;;;1.40;;